createdAt,value
2019-03-28T00:00:42.680Z,8.17
2019-03-28T00:03:15.076Z,8.20
2019-03-28T00:05:47.471Z,8.20
2019-03-28T00:08:20.082Z,8.22
2019-03-28T00:10:52.341Z,8.21
2019-03-28T00:13:24.819Z,8.21
2019-03-28T00:15:58.194Z,8.20
2019-03-28T00:18:30.852Z,8.23
2019-03-28T00:21:02.946Z,8.22
2019-03-28T00:23:36.786Z,8.21
2019-03-28T00:26:09.586Z,8.17
2019-03-28T00:28:42.135Z,8.06
2019-03-28T00:31:14.336Z,8.06
2019-03-28T00:33:46.771Z,8.07
2019-03-28T00:36:19.380Z,8.04
2019-03-28T00:38:51.781Z,8.02
2019-03-28T00:41:23.891Z,7.95
2019-03-28T00:43:56.291Z,7.95
2019-03-28T00:46:28.353Z,7.96
2019-03-28T00:49:00.516Z,7.95
2019-03-28T00:51:32.741Z,7.96
2019-03-28T00:54:04.876Z,7.97
2019-03-28T00:56:46.608Z,7.99
2019-03-28T00:59:10.996Z,7.90
2019-03-28T01:01:43.170Z,7.87
2019-03-28T01:04:15.996Z,7.88
2019-03-28T01:06:48.163Z,7.87
2019-03-28T01:09:20.801Z,7.87
2019-03-28T01:11:52.980Z,7.88
2019-03-28T01:14:25.397Z,7.88
2019-03-28T01:16:57.530Z,7.87
2019-03-28T01:19:30.023Z,7.90
2019-03-28T01:22:02.241Z,7.90
2019-03-28T01:24:34.551Z,7.86
2019-03-28T01:27:07.007Z,7.86
2019-03-28T01:29:39.731Z,7.86
2019-03-28T01:32:11.846Z,7.86
2019-03-28T01:34:44.361Z,7.86
2019-03-28T01:37:16.420Z,7.88
2019-03-28T01:39:48.826Z,7.87
2019-03-28T01:42:21.554Z,7.87
2019-03-28T01:44:53.957Z,7.86
2019-03-28T01:47:26.070Z,7.90
2019-03-28T01:49:58.285Z,7.90
2019-03-28T01:52:30.758Z,7.86
2019-03-28T01:55:03.246Z,7.87
2019-03-28T01:57:35.771Z,7.87
2019-03-28T02:00:12.457Z,7.85
2019-03-28T02:02:45.334Z,7.83
2019-03-28T02:05:18.252Z,7.84
2019-03-28T02:07:50.516Z,7.82
2019-03-28T02:10:22.831Z,7.80
2019-03-28T02:12:54.980Z,7.79
2019-03-28T02:15:27.277Z,7.79
2019-03-28T02:17:59.751Z,7.79
2019-03-28T02:20:32.026Z,7.80
2019-03-28T02:23:04.406Z,7.79
2019-03-28T02:25:37.075Z,7.79
2019-03-28T02:28:09.452Z,7.79
2019-03-28T02:30:41.730Z,7.85
2019-03-28T02:33:14.162Z,7.84
2019-03-28T02:35:46.562Z,7.85
2019-03-28T02:38:18.782Z,7.85
2019-03-28T02:40:50.991Z,7.85
2019-03-28T02:43:23.442Z,7.83
2019-03-28T02:45:56.487Z,7.87
2019-03-28T02:48:29.166Z,7.84
2019-03-28T02:51:01.522Z,7.84
2019-03-28T02:53:33.615Z,7.82
2019-03-28T02:56:05.927Z,7.80
2019-03-28T02:58:38.232Z,7.73
2019-03-28T03:01:10.556Z,7.70
2019-03-28T03:03:42.960Z,7.70
2019-03-28T03:06:15.549Z,7.71
2019-03-28T03:08:47.902Z,7.70
2019-03-28T03:11:20.526Z,7.69
2019-03-28T03:13:52.631Z,7.69
2019-03-28T03:16:25.141Z,7.72
2019-03-28T03:18:57.437Z,7.74
2019-03-28T03:21:29.731Z,7.75
2019-03-28T03:24:02.080Z,7.78
2019-03-28T03:26:34.387Z,7.79
2019-03-28T03:29:06.816Z,7.79
2019-03-28T03:31:39.135Z,7.77
2019-03-28T03:34:11.275Z,7.78
2019-03-28T03:36:43.804Z,7.80
2019-03-28T03:39:15.944Z,7.84
2019-03-28T03:41:48.612Z,7.84
2019-03-28T03:44:21.106Z,7.91
2019-03-28T03:46:53.830Z,7.91
2019-03-28T03:49:26.193Z,7.86
2019-03-28T03:51:58.547Z,7.86
2019-03-28T03:54:30.933Z,7.91
2019-03-28T03:57:03.781Z,7.94
2019-03-28T03:59:35.972Z,7.94
2019-03-28T04:02:08.422Z,7.93
2019-03-28T04:04:41.057Z,7.98
2019-03-28T04:07:13.636Z,7.96
2019-03-28T04:09:46.139Z,7.97
2019-03-28T04:12:18.766Z,7.97
2019-03-28T04:14:51.562Z,7.99
2019-03-28T04:17:24.267Z,7.97
2019-03-28T04:19:56.514Z,7.92
2019-03-28T04:22:29.122Z,8.00
2019-03-28T04:25:01.396Z,8.00
2019-03-28T04:27:34.016Z,7.98
2019-03-28T04:30:08.976Z,7.98
2019-03-28T04:32:41.478Z,8.02
2019-03-28T04:35:13.812Z,8.03
2019-03-28T04:37:46.732Z,8.03
2019-03-28T04:40:19.142Z,8.02
2019-03-28T04:42:51.772Z,8.04
2019-03-28T04:45:24.266Z,8.05
2019-03-28T04:47:56.716Z,8.05
2019-03-28T04:50:28.961Z,7.99
2019-03-28T04:53:01.487Z,7.99
2019-03-28T04:55:33.769Z,7.95
2019-03-28T04:58:06.001Z,7.99
2019-03-28T05:00:38.326Z,7.99
2019-03-28T05:03:11.047Z,7.97
2019-03-28T05:05:43.521Z,7.98
2019-03-28T05:08:16.094Z,8.06
2019-03-28T05:10:48.372Z,8.09
2019-03-28T05:13:20.727Z,8.14
2019-03-28T05:15:52.972Z,8.22
2019-03-28T05:18:25.472Z,8.19
2019-03-28T05:20:57.932Z,8.26
2019-03-28T05:23:30.752Z,8.25
2019-03-28T05:26:02.990Z,8.25
2019-03-28T05:28:35.367Z,8.29
2019-03-28T05:31:08.355Z,8.33
2019-03-28T05:33:40.911Z,8.38
2019-03-28T05:36:13.357Z,8.42
2019-03-28T05:38:46.176Z,8.49
2019-03-28T05:41:18.386Z,8.51
2019-03-28T05:43:50.761Z,8.51
2019-03-28T05:46:24.656Z,8.51
2019-03-28T05:48:57.334Z,8.47
2019-03-28T05:51:29.881Z,8.47
2019-03-28T05:54:02.261Z,8.56
2019-03-28T05:56:34.988Z,8.63
2019-03-28T05:59:11.066Z,8.76
2019-03-28T06:01:41.266Z,8.86
2019-03-28T06:04:13.736Z,8.93
2019-03-28T06:06:46.081Z,9.05
2019-03-28T06:09:19.278Z,9.14
2019-03-28T06:11:52.972Z,9.10
2019-03-28T06:14:25.723Z,9.12
2019-03-28T06:16:58.019Z,9.17
2019-03-28T06:19:30.216Z,9.34
2019-03-28T06:22:03.652Z,9.34
2019-03-28T06:24:36.041Z,9.41
2019-03-28T06:27:08.302Z,9.46
2019-03-28T06:29:40.756Z,9.46
2019-03-28T06:32:13.371Z,9.35
2019-03-28T06:34:45.648Z,9.35
2019-03-28T06:37:18.345Z,9.45
2019-03-28T06:39:51.260Z,9.54
2019-03-28T06:42:24.011Z,9.60
2019-03-28T06:44:56.476Z,9.68
2019-03-28T06:47:28.826Z,9.65
2019-03-28T06:50:01.246Z,9.66
2019-03-28T06:52:34.066Z,9.67
2019-03-28T06:55:06.721Z,9.54
2019-03-28T06:57:39.355Z,9.46
2019-03-28T07:00:11.911Z,9.42
2019-03-28T07:02:44.066Z,9.34
2019-03-28T07:05:16.402Z,9.54
2019-03-28T07:07:48.795Z,9.52
2019-03-28T07:10:22.391Z,9.65
2019-03-28T07:12:54.371Z,9.76
2019-03-28T07:15:26.991Z,9.83
2019-03-28T07:17:59.676Z,9.79
2019-03-28T07:20:32.721Z,9.87
2019-03-28T07:23:04.990Z,10.03
2019-03-28T07:25:37.446Z,10.12
2019-03-28T07:28:09.683Z,10.04
2019-03-28T07:30:42.031Z,10.04
2019-03-28T07:33:14.273Z,10.10
2019-03-28T07:35:46.650Z,10.15
2019-03-28T07:38:19.000Z,10.22
2019-03-28T07:40:51.575Z,10.21
2019-03-28T07:43:25.312Z,10.07
2019-03-28T07:45:58.034Z,10.29
2019-03-28T07:48:30.995Z,10.42
2019-03-28T07:51:03.416Z,10.59
2019-03-28T07:53:35.815Z,10.65
2019-03-28T07:56:08.153Z,10.80
2019-03-28T07:58:40.331Z,10.97
2019-03-28T08:01:12.896Z,10.89
2019-03-28T08:03:45.285Z,11.09
2019-03-28T08:06:17.647Z,11.10
2019-03-28T08:08:50.150Z,11.39
2019-03-28T08:11:22.765Z,11.70
2019-03-28T08:13:54.895Z,11.86
2019-03-28T08:16:29.019Z,12.00
2019-03-28T08:19:01.519Z,12.05
2019-03-28T08:21:33.895Z,12.58
2019-03-28T08:24:06.258Z,12.84
2019-03-28T08:26:38.580Z,12.97
2019-03-28T08:29:10.965Z,12.67
2019-03-28T08:31:45.036Z,12.56
2019-03-28T08:34:18.583Z,12.68
2019-03-28T08:36:51.341Z,12.63
2019-03-28T08:39:23.723Z,12.54
2019-03-28T08:41:56.470Z,12.41
2019-03-28T08:44:29.205Z,12.42
2019-03-28T08:47:01.845Z,12.65
2019-03-28T08:49:34.191Z,12.24
2019-03-28T08:52:06.580Z,12.27
2019-03-28T08:54:39.005Z,12.38
2019-03-28T08:57:11.676Z,12.71
2019-03-28T08:59:44.076Z,12.77
2019-03-28T09:02:16.458Z,12.90
2019-03-28T09:04:50.332Z,12.89
2019-03-28T09:07:22.972Z,12.97
2019-03-28T09:09:55.850Z,12.74
2019-03-28T09:12:28.370Z,12.55
2019-03-28T09:15:06.638Z,12.26
2019-03-28T09:17:39.096Z,12.11
2019-03-28T09:20:11.415Z,12.40
2019-03-28T09:22:43.671Z,13.02
2019-03-28T09:25:16.165Z,13.50
2019-03-28T09:27:51.563Z,13.79
2019-03-28T09:30:29.687Z,13.51
2019-03-28T09:33:02.131Z,13.53
2019-03-28T09:35:34.622Z,13.08
2019-03-28T09:38:07.151Z,12.81
2019-03-28T09:40:39.365Z,12.56
2019-03-28T09:43:12.050Z,12.62
2019-03-28T09:45:44.530Z,12.40
2019-03-28T09:48:17.090Z,12.57
2019-03-28T09:50:49.575Z,12.62
2019-03-28T09:53:22.174Z,12.76
2019-03-28T09:55:54.536Z,12.57
2019-03-28T09:58:26.913Z,12.68
2019-03-28T10:01:03.062Z,12.65
2019-03-28T10:03:33.597Z,12.84
2019-03-28T10:06:06.201Z,13.03
2019-03-28T10:08:39.211Z,12.99
2019-03-28T10:11:11.667Z,12.99
2019-03-28T10:13:44.101Z,13.11
2019-03-28T10:16:16.731Z,13.38
2019-03-28T10:18:49.103Z,13.72
2019-03-28T10:21:21.433Z,13.58
2019-03-28T10:23:54.141Z,13.47
2019-03-28T10:26:26.400Z,13.42
2019-03-28T10:28:59.760Z,13.13
2019-03-28T10:31:32.155Z,13.13
2019-03-28T10:34:04.655Z,13.03
2019-03-28T10:36:36.916Z,13.20
2019-03-28T10:39:10.192Z,13.06
2019-03-28T10:41:42.941Z,13.13
2019-03-28T10:44:15.360Z,13.23
2019-03-28T10:46:47.835Z,13.34
2019-03-28T10:49:20.010Z,13.44
2019-03-28T10:51:53.311Z,13.63
2019-03-28T10:54:25.889Z,13.93
2019-03-28T10:57:12.504Z,14.02
2019-03-28T10:59:33.721Z,13.73
2019-03-28T11:02:06.086Z,13.72
2019-03-28T11:04:38.431Z,13.83
2019-03-28T11:07:10.601Z,13.59
2019-03-28T11:09:43.311Z,13.46
2019-03-28T11:12:15.951Z,13.74
2019-03-28T11:14:48.506Z,13.78
2019-03-28T11:17:21.792Z,13.94
2019-03-28T11:19:56.134Z,13.98
2019-03-28T11:22:29.310Z,14.01
2019-03-28T11:25:01.485Z,14.13
2019-03-28T11:27:33.713Z,14.33
2019-03-28T11:30:10.616Z,14.32
2019-03-28T11:32:43.300Z,14.40
2019-03-28T11:35:15.878Z,14.17
2019-03-28T11:37:48.181Z,14.45
2019-03-28T11:40:20.811Z,14.53
2019-03-28T11:42:53.879Z,14.43
2019-03-28T11:45:27.225Z,14.49
2019-03-28T11:47:59.551Z,14.56
2019-03-28T11:50:32.071Z,14.43
2019-03-28T11:53:04.661Z,14.37
2019-03-28T11:55:36.866Z,14.39
2019-03-28T11:58:09.471Z,14.72
2019-03-28T12:00:41.771Z,14.72
2019-03-28T12:03:14.215Z,14.78
2019-03-28T12:05:46.721Z,14.37
2019-03-28T12:08:19.075Z,14.49
2019-03-28T12:10:51.950Z,14.43
2019-03-28T12:13:25.641Z,14.38
2019-03-28T12:15:57.901Z,14.44
2019-03-28T12:18:30.256Z,14.44
2019-03-28T12:21:03.536Z,14.28
2019-03-28T12:23:36.135Z,14.28
2019-03-28T12:26:08.701Z,13.99
2019-03-28T12:28:41.763Z,13.92
2019-03-28T12:31:14.000Z,14.05
2019-03-28T12:33:46.375Z,14.20
2019-03-28T12:36:19.061Z,14.31
2019-03-28T12:38:51.390Z,14.29
2019-03-28T12:41:23.866Z,14.13
2019-03-28T12:43:56.117Z,14.23
2019-03-28T12:46:28.632Z,14.24
2019-03-28T12:49:01.021Z,14.25
2019-03-28T12:51:34.631Z,14.38
2019-03-28T12:54:07.073Z,14.16
2019-03-28T12:56:39.781Z,14.27
2019-03-28T12:59:12.311Z,14.43
2019-03-28T13:01:44.767Z,14.75
2019-03-28T13:04:17.346Z,14.77
2019-03-28T13:06:49.746Z,14.94
2019-03-28T13:09:22.152Z,14.87
2019-03-28T13:11:54.732Z,14.82
2019-03-28T13:14:27.277Z,15.04
2019-03-28T13:17:00.096Z,14.91
2019-03-28T13:19:32.516Z,14.92
2019-03-28T13:22:05.057Z,14.84
2019-03-28T13:24:37.661Z,14.90
2019-03-28T13:27:10.711Z,14.93
2019-03-28T13:29:43.556Z,14.88
2019-03-28T13:32:16.304Z,14.97
2019-03-28T13:34:48.456Z,14.95
2019-03-28T13:37:20.776Z,14.76
2019-03-28T13:39:53.096Z,14.83
2019-03-28T13:42:25.196Z,14.99
2019-03-28T13:44:57.681Z,15.13
2019-03-28T13:47:30.040Z,15.29
2019-03-28T13:50:02.715Z,15.52
2019-03-28T13:52:35.301Z,15.71
2019-03-28T13:55:10.811Z,15.47
2019-03-28T13:57:43.554Z,15.45
2019-03-28T14:00:19.236Z,15.57
2019-03-28T14:02:58.424Z,15.56
2019-03-28T14:05:26.221Z,15.45
2019-03-28T14:07:58.748Z,15.28
2019-03-28T14:10:31.621Z,15.34
2019-03-28T14:13:04.020Z,15.25
2019-03-28T14:15:36.762Z,15.10
2019-03-28T14:18:09.170Z,15.03
2019-03-28T14:20:42.181Z,14.82
2019-03-28T14:23:14.640Z,14.75
2019-03-28T14:25:48.394Z,14.68
2019-03-28T14:28:20.931Z,14.33
2019-03-28T14:30:53.701Z,14.33
2019-03-28T14:33:27.272Z,14.23
2019-03-28T14:35:59.861Z,14.15
2019-03-28T14:38:32.491Z,14.00
2019-03-28T14:41:04.991Z,13.93
2019-03-28T14:43:37.846Z,13.80
2019-03-28T14:46:11.681Z,13.56
2019-03-28T14:48:44.041Z,13.56
2019-03-28T14:51:16.536Z,13.61
2019-03-28T14:53:49.072Z,13.67
2019-03-28T14:56:22.005Z,13.67
2019-03-28T14:58:55.396Z,13.71
2019-03-28T15:01:27.735Z,13.73
2019-03-28T15:04:00.215Z,13.72
2019-03-28T15:06:33.685Z,13.75
2019-03-28T15:09:09.775Z,13.61
2019-03-28T15:11:43.405Z,13.58
2019-03-28T15:14:16.176Z,13.37
2019-03-28T15:16:49.082Z,13.36
2019-03-28T15:19:21.435Z,13.28
2019-03-28T15:21:53.966Z,13.29
2019-03-28T15:24:26.730Z,13.22
2019-03-28T15:26:59.312Z,13.16
2019-03-28T15:29:31.896Z,13.21
2019-03-28T15:32:04.331Z,13.15
2019-03-28T15:34:36.970Z,13.12
2019-03-28T15:37:09.440Z,13.08
2019-03-28T15:39:41.953Z,13.02
2019-03-28T15:42:14.695Z,12.99
2019-03-28T15:44:47.335Z,12.90
2019-03-28T15:47:19.451Z,12.93
2019-03-28T15:49:52.353Z,12.99
2019-03-28T15:52:27.421Z,13.03
2019-03-28T15:54:59.210Z,13.03
2019-03-28T15:57:31.811Z,13.05
2019-03-28T16:00:04.105Z,12.91
2019-03-28T16:02:38.055Z,12.91
2019-03-28T16:05:10.355Z,12.88
2019-03-28T16:07:43.136Z,12.85
2019-03-28T16:10:15.666Z,12.91
2019-03-28T16:12:48.050Z,12.97
2019-03-28T16:15:20.360Z,13.01
2019-03-28T16:17:53.075Z,13.08
2019-03-28T16:20:25.710Z,13.02
2019-03-28T16:22:58.365Z,13.02
2019-03-28T16:25:31.174Z,12.96
2019-03-28T16:28:03.780Z,12.79
2019-03-28T16:30:38.670Z,12.73
2019-03-28T16:33:11.212Z,12.63
2019-03-28T16:35:43.705Z,12.51
2019-03-28T16:38:16.306Z,12.43
2019-03-28T16:40:48.858Z,12.34
2019-03-28T16:43:25.684Z,12.23
2019-03-28T16:45:58.332Z,12.16
2019-03-28T16:48:30.990Z,12.06
2019-03-28T16:51:03.532Z,11.98
2019-03-28T16:53:36.076Z,11.83
2019-03-28T16:56:08.750Z,11.74
2019-03-28T16:58:41.485Z,11.67
2019-03-28T17:01:14.190Z,11.58
2019-03-28T17:03:46.645Z,11.50
2019-03-28T17:06:19.170Z,11.41
2019-03-28T17:08:51.826Z,11.36
2019-03-28T17:11:24.755Z,11.31
2019-03-28T17:13:57.209Z,11.31
2019-03-28T17:16:29.629Z,11.30
2019-03-28T17:19:02.275Z,11.31
2019-03-28T17:21:34.701Z,11.28
2019-03-28T17:24:07.250Z,11.26
2019-03-28T17:26:39.937Z,11.25
2019-03-28T17:29:12.743Z,11.22
2019-03-28T17:31:45.390Z,11.21
2019-03-28T17:34:17.816Z,11.16
2019-03-28T17:36:50.582Z,11.16
2019-03-28T17:39:23.230Z,11.14
2019-03-28T17:41:55.935Z,11.10
2019-03-28T17:44:29.015Z,11.07
2019-03-28T17:47:01.431Z,11.07
2019-03-28T17:49:34.151Z,11.05
2019-03-28T17:52:07.111Z,11.03
2019-03-28T17:54:40.480Z,10.98
2019-03-28T17:57:13.714Z,10.97
2019-03-28T17:59:46.546Z,10.98
2019-03-28T18:02:19.130Z,10.97
2019-03-28T18:04:51.757Z,10.97
2019-03-28T18:07:24.465Z,10.97
2019-03-28T18:09:56.905Z,10.95
2019-03-28T18:12:29.815Z,10.95
2019-03-28T18:15:02.416Z,10.94
2019-03-28T18:17:35.335Z,10.93
2019-03-28T18:20:08.650Z,10.92
2019-03-28T18:22:41.135Z,10.89
2019-03-28T18:25:13.623Z,10.86
2019-03-28T18:27:46.172Z,10.80
2019-03-28T18:30:20.225Z,10.76
2019-03-28T18:32:52.852Z,10.69
2019-03-28T18:35:25.168Z,10.63
2019-03-28T18:37:57.806Z,10.58
2019-03-28T18:40:30.161Z,10.52
2019-03-28T18:43:02.938Z,10.47
2019-03-28T18:45:35.888Z,10.38
2019-03-28T18:48:09.334Z,10.28
2019-03-28T18:50:42.413Z,10.17
2019-03-28T18:53:14.736Z,10.07
2019-03-28T18:55:47.110Z,9.99
2019-03-28T18:58:19.540Z,9.91
2019-03-28T19:00:52.316Z,9.85
2019-03-28T19:03:24.665Z,9.79
2019-03-28T19:05:57.345Z,9.75
2019-03-28T19:08:29.810Z,9.70
2019-03-28T19:11:02.341Z,9.66
2019-03-28T19:13:35.615Z,9.64
2019-03-28T19:16:08.240Z,9.62
2019-03-28T19:18:40.650Z,9.58
2019-03-28T19:21:13.253Z,9.57
2019-03-28T19:23:45.631Z,9.56
2019-03-28T19:26:18.040Z,9.55
2019-03-28T19:28:50.641Z,9.55
2019-03-28T19:31:23.275Z,9.52
2019-03-28T19:33:55.700Z,9.46
2019-03-28T19:36:28.236Z,9.41
2019-03-28T19:39:00.460Z,9.33
2019-03-28T19:41:34.507Z,9.25
2019-03-28T19:44:06.930Z,9.11
2019-03-28T19:46:39.392Z,9.06
2019-03-28T19:49:11.717Z,8.98
2019-03-28T19:51:47.491Z,8.90
2019-03-28T19:54:18.475Z,8.78
2019-03-28T19:56:51.125Z,8.72
2019-03-28T19:59:23.635Z,8.63
2019-03-28T20:01:56.256Z,8.53
2019-03-28T20:04:29.066Z,8.46
2019-03-28T20:07:01.531Z,8.37
2019-03-28T20:09:34.236Z,8.26
2019-03-28T20:12:06.888Z,8.04
2019-03-28T20:14:39.506Z,8.04
2019-03-28T20:17:12.192Z,7.98
2019-03-28T20:19:44.410Z,7.88
2019-03-28T20:22:16.764Z,7.79
2019-03-28T20:24:49.255Z,7.79
2019-03-28T20:27:22.373Z,7.74
2019-03-28T20:29:55.994Z,7.68
2019-03-28T20:32:28.500Z,7.59
2019-03-28T20:35:01.200Z,7.52
2019-03-28T20:37:33.926Z,7.50
2019-03-28T20:40:09.192Z,7.47
2019-03-28T20:42:43.005Z,7.46
2019-03-28T20:45:16.970Z,7.46
2019-03-28T20:47:50.868Z,7.46
2019-03-28T20:50:23.902Z,7.50
2019-03-28T20:52:56.445Z,7.57
2019-03-28T20:55:28.868Z,7.65
2019-03-28T20:58:01.295Z,7.72
2019-03-28T21:00:46.470Z,7.79
2019-03-28T21:03:18.921Z,7.88
2019-03-28T21:05:51.525Z,7.94
2019-03-28T21:08:23.971Z,7.99
2019-03-28T21:10:56.350Z,8.05
2019-03-28T21:13:30.055Z,8.03
2019-03-28T21:16:02.530Z,8.08
2019-03-28T21:18:34.900Z,8.12
2019-03-28T21:21:07.620Z,8.15
2019-03-28T21:23:40.360Z,8.10
2019-03-28T21:26:12.856Z,8.10
2019-03-28T21:28:47.497Z,8.14
2019-03-28T21:31:19.550Z,8.15
2019-03-28T21:33:54.900Z,8.14
2019-03-28T21:36:29.933Z,8.15
2019-03-28T21:39:01.331Z,8.17
2019-03-28T21:41:35.793Z,8.18
2019-03-28T21:44:07.886Z,8.16
2019-03-28T21:46:40.280Z,8.17
2019-03-28T21:49:13.915Z,8.28
2019-03-28T21:51:47.642Z,8.28
2019-03-28T21:54:20.196Z,8.41
2019-03-28T21:56:52.833Z,8.49
2019-03-28T21:59:25.120Z,8.56
2019-03-28T22:01:58.360Z,8.64
2019-03-28T22:04:31.236Z,8.76
2019-03-28T22:07:03.821Z,8.76
2019-03-28T22:09:39.501Z,8.82
2019-03-28T22:12:10.192Z,8.82
2019-03-28T22:14:42.716Z,8.85
2019-03-28T22:17:15.866Z,8.87
2019-03-28T22:19:48.645Z,8.91
2019-03-28T22:22:21.115Z,8.91
2019-03-28T22:24:53.430Z,8.99
2019-03-28T22:27:26.105Z,8.99
2019-03-28T22:29:58.485Z,9.00
2019-03-28T22:32:30.950Z,9.00
2019-03-28T22:35:03.332Z,9.00
2019-03-28T22:37:35.531Z,8.97
2019-03-28T22:40:11.756Z,8.96
2019-03-28T22:42:42.945Z,8.96
2019-03-28T22:45:15.551Z,8.95
2019-03-28T22:47:48.269Z,8.90
2019-03-28T22:50:20.897Z,8.94
2019-03-28T22:52:53.504Z,8.92
2019-03-28T22:55:25.896Z,8.96
2019-03-28T22:57:58.490Z,9.00
2019-03-28T23:00:44.949Z,9.04
2019-03-28T23:03:19.085Z,9.10
2019-03-28T23:05:51.660Z,9.12
2019-03-28T23:08:24.265Z,9.14
2019-03-28T23:10:56.750Z,9.14
2019-03-28T23:13:29.210Z,9.22
2019-03-28T23:16:02.352Z,9.22
2019-03-28T23:18:35.688Z,9.25
2019-03-28T23:21:08.120Z,9.19
2019-03-28T23:23:40.612Z,9.18
2019-03-28T23:26:13.207Z,9.21
2019-03-28T23:28:45.577Z,9.23
2019-03-28T23:31:18.350Z,9.20
2019-03-28T23:33:51.022Z,9.23
2019-03-28T23:36:23.435Z,9.23
2019-03-28T23:38:56.046Z,9.23
2019-03-28T23:41:28.605Z,9.27
2019-03-28T23:44:01.885Z,9.26
2019-03-28T23:46:34.370Z,9.26
2019-03-28T23:49:18.086Z,9.24
2019-03-28T23:52:02.062Z,9.24
2019-03-28T23:54:39.510Z,9.20
2019-03-28T23:57:11.951Z,9.25
2019-03-28T23:59:44.496Z,9.28
